sensor_id;sensor_type;location;lat;lon;timestamp;P1;durP1;ratioP1;P2;durP2;ratioP2
938;SDS011;456;53.584;9.968;2023-04-03T00:00:29;3.00;;;1.50;;
938;SDS011;456;53.584;9.968;2023-04-03T00:02:56;2.37;;;2.17;;
938;SDS011;456;53.584;9.968;2023-04-03T00:05:22;2.00;;;1.40;;
938;SDS011;456;53.584;9.968;2023-04-03T00:07:47;1.93;;;1.43;;
938;SDS011;456;53.584;9.968;2023-04-03T00:10:14;1.40;;;1.10;;
938;SDS011;456;53.584;9.968;2023-04-03T00:12:40;2.87;;;1.60;;
938;SDS011;456;53.584;9.968;2023-04-03T00:15:06;3.53;;;1.50;;
938;SDS011;456;53.584;9.968;2023-04-03T00:17:32;2.53;;;1.30;;
938;SDS011;456;53.584;9.968;2023-04-03T00:19:58;2.83;;;2.07;;
938;SDS011;456;53.584;9.968;2023-04-03T00:22:24;1.67;;;1.37;;
938;SDS011;456;53.584;9.968;2023-04-03T00:24:51;1.80;;;1.33;;
938;SDS011;456;53.584;9.968;2023-04-03T00:27:17;2.07;;;1.67;;
938;SDS011;456;53.584;9.968;2023-04-03T00:29:42;3.23;;;1.70;;
938;SDS011;456;53.584;9.968;2023-04-03T00:32:08;1.70;;;1.40;;
938;SDS011;456;53.584;9.968;2023-04-03T00:34:33;2.33;;;1.70;;
938;SDS011;456;53.584;9.968;2023-04-03T00:36:59;1.67;;;1.47;;
938;SDS011;456;53.584;9.968;2023-04-03T00:39:25;2.57;;;1.40;;
938;SDS011;456;53.584;9.968;2023-04-03T00:41:51;2.03;;;1.57;;
938;SDS011;456;53.584;9.968;2023-04-03T00:47:09;2.10;;;1.63;;
938;SDS011;456;53.584;9.968;2023-04-03T00:49:38;2.03;;;1.53;;
938;SDS011;456;53.584;9.968;2023-04-03T00:52:09;3.20;;;2.00;;
938;SDS011;456;53.584;9.968;2023-04-03T00:54:38;2.27;;;1.53;;
938;SDS011;456;53.584;9.968;2023-04-03T00:57:05;2.83;;;1.80;;
938;SDS011;456;53.584;9.968;2023-04-03T00:59:33;2.17;;;1.50;;
938;SDS011;456;53.584;9.968;2023-04-03T01:02:01;2.23;;;1.70;;
938;SDS011;456;53.584;9.968;2023-04-03T01:06:52;4.10;;;1.97;;
938;SDS011;456;53.584;9.968;2023-04-03T01:09:22;3.20;;;1.60;;
938;SDS011;456;53.584;9.968;2023-04-03T01:11:47;2.37;;;1.67;;
938;SDS011;456;53.584;9.968;2023-04-03T01:14:13;3.10;;;1.50;;
938;SDS011;456;53.584;9.968;2023-04-03T01:16:39;1.93;;;1.43;;
938;SDS011;456;53.584;9.968;2023-04-03T01:19:05;2.43;;;1.47;;
938;SDS011;456;53.584;9.968;2023-04-03T01:24:34;2.93;;;1.63;;
938;SDS011;456;53.584;9.968;2023-04-03T01:27:01;1.70;;;1.60;;
938;SDS011;456;53.584;9.968;2023-04-03T01:29:28;2.50;;;1.70;;
938;SDS011;456;53.584;9.968;2023-04-03T01:31:56;2.70;;;1.47;;
938;SDS011;456;53.584;9.968;2023-04-03T01:34:23;2.40;;;1.70;;
938;SDS011;456;53.584;9.968;2023-04-03T01:36:50;3.10;;;1.50;;
938;SDS011;456;53.584;9.968;2023-04-03T01:39:16;3.00;;;1.53;;
938;SDS011;456;53.584;9.968;2023-04-03T01:41:42;4.70;;;1.50;;
938;SDS011;456;53.584;9.968;2023-04-03T01:44:08;2.83;;;1.90;;
938;SDS011;456;53.584;9.968;2023-04-03T01:46:33;4.60;;;2.07;;
938;SDS011;456;53.584;9.968;2023-04-03T01:48:59;1.80;;;1.70;;
938;SDS011;456;53.584;9.968;2023-04-03T01:51:25;1.90;;;1.50;;
938;SDS011;456;53.584;9.968;2023-04-03T01:53:51;2.50;;;1.50;;
938;SDS011;456;53.584;9.968;2023-04-03T01:56:17;1.93;;;1.70;;
938;SDS011;456;53.584;9.968;2023-04-03T01:58:42;2.63;;;1.50;;
938;SDS011;456;53.584;9.968;2023-04-03T02:01:08;1.80;;;1.60;;
938;SDS011;456;53.584;9.968;2023-04-03T02:03:33;2.77;;;1.80;;
938;SDS011;456;53.584;9.968;2023-04-03T02:05:59;1.77;;;1.47;;
938;SDS011;456;53.584;9.968;2023-04-03T02:08:24;2.07;;;1.73;;
938;SDS011;456;53.584;9.968;2023-04-03T02:10:50;2.60;;;1.40;;
938;SDS011;456;53.584;9.968;2023-04-03T02:13:16;2.30;;;1.60;;
938;SDS011;456;53.584;9.968;2023-04-03T02:15:42;3.20;;;1.60;;
938;SDS011;456;53.584;9.968;2023-04-03T02:18:07;2.23;;;1.83;;
938;SDS011;456;53.584;9.968;2023-04-03T02:20:33;2.67;;;1.43;;
938;SDS011;456;53.584;9.968;2023-04-03T02:22:59;2.10;;;1.47;;
938;SDS011;456;53.584;9.968;2023-04-03T02:25:26;3.83;;;1.53;;
938;SDS011;456;53.584;9.968;2023-04-03T02:27:51;2.57;;;1.57;;
938;SDS011;456;53.584;9.968;2023-04-03T02:30:17;1.83;;;1.57;;
938;SDS011;456;53.584;9.968;2023-04-03T02:32:43;3.10;;;1.60;;
938;SDS011;456;53.584;9.968;2023-04-03T02:35:09;2.43;;;1.73;;
938;SDS011;456;53.584;9.968;2023-04-03T02:37:36;2.03;;;1.80;;
938;SDS011;456;53.584;9.968;2023-04-03T02:40:02;4.00;;;1.90;;
938;SDS011;456;53.584;9.968;2023-04-03T02:42:28;3.00;;;2.07;;
938;SDS011;456;53.584;9.968;2023-04-03T02:44:54;2.63;;;1.60;;
938;SDS011;456;53.584;9.968;2023-04-03T02:47:20;1.60;;;1.50;;
938;SDS011;456;53.584;9.968;2023-04-03T02:49:45;1.30;;;1.20;;
938;SDS011;456;53.584;9.968;2023-04-03T02:52:14;2.30;;;1.27;;
938;SDS011;456;53.584;9.968;2023-04-03T02:54:40;4.00;;;1.67;;
938;SDS011;456;53.584;9.968;2023-04-03T02:57:06;2.30;;;1.50;;
938;SDS011;456;53.584;9.968;2023-04-03T02:59:34;2.97;;;1.90;;
938;SDS011;456;53.584;9.968;2023-04-03T03:02:00;3.37;;;1.57;;
938;SDS011;456;53.584;9.968;2023-04-03T03:04:26;2.47;;;1.70;;
938;SDS011;456;53.584;9.968;2023-04-03T03:06:52;3.40;;;1.80;;
938;SDS011;456;53.584;9.968;2023-04-03T03:09:17;2.10;;;1.63;;
938;SDS011;456;53.584;9.968;2023-04-03T03:11:43;3.20;;;1.70;;
938;SDS011;456;53.584;9.968;2023-04-03T03:14:09;4.30;;;1.77;;
938;SDS011;456;53.584;9.968;2023-04-03T03:16:38;2.13;;;1.70;;
938;SDS011;456;53.584;9.968;2023-04-03T03:19:03;3.80;;;1.63;;
938;SDS011;456;53.584;9.968;2023-04-03T03:21:30;4.03;;;2.00;;
938;SDS011;456;53.584;9.968;2023-04-03T03:23:55;2.20;;;1.73;;
938;SDS011;456;53.584;9.968;2023-04-03T03:26:21;3.63;;;2.20;;
938;SDS011;456;53.584;9.968;2023-04-03T03:28:46;1.70;;;1.60;;
938;SDS011;456;53.584;9.968;2023-04-03T03:31:12;2.73;;;1.50;;
938;SDS011;456;53.584;9.968;2023-04-03T03:33:40;4.93;;;1.60;;
938;SDS011;456;53.584;9.968;2023-04-03T03:36:05;1.70;;;1.40;;
938;SDS011;456;53.584;9.968;2023-04-03T03:38:31;3.30;;;1.70;;
938;SDS011;456;53.584;9.968;2023-04-03T03:40:57;2.30;;;1.87;;
938;SDS011;456;53.584;9.968;2023-04-03T03:43:22;3.30;;;1.80;;
938;SDS011;456;53.584;9.968;2023-04-03T03:45:51;2.20;;;1.43;;
938;SDS011;456;53.584;9.968;2023-04-03T03:48:18;2.27;;;1.90;;
938;SDS011;456;53.584;9.968;2023-04-03T03:50:44;5.17;;;1.60;;
938;SDS011;456;53.584;9.968;2023-04-03T03:53:10;3.80;;;2.17;;
938;SDS011;456;53.584;9.968;2023-04-03T03:55:35;3.70;;;1.70;;
938;SDS011;456;53.584;9.968;2023-04-03T03:58:01;1.73;;;1.40;;
938;SDS011;456;53.584;9.968;2023-04-03T04:00:27;3.10;;;1.57;;
938;SDS011;456;53.584;9.968;2023-04-03T04:02:53;2.87;;;1.53;;
938;SDS011;456;53.584;9.968;2023-04-03T04:05:19;2.57;;;1.80;;
938;SDS011;456;53.584;9.968;2023-04-03T04:07:45;3.43;;;1.57;;
938;SDS011;456;53.584;9.968;2023-04-03T04:10:10;2.07;;;1.60;;
938;SDS011;456;53.584;9.968;2023-04-03T04:12:38;5.20;;;1.67;;
938;SDS011;456;53.584;9.968;2023-04-03T04:15:03;2.40;;;1.60;;
938;SDS011;456;53.584;9.968;2023-04-03T04:17:29;1.93;;;1.63;;
938;SDS011;456;53.584;9.968;2023-04-03T04:19:55;2.00;;;1.53;;
938;SDS011;456;53.584;9.968;2023-04-03T04:22:21;2.60;;;1.40;;
938;SDS011;456;53.584;9.968;2023-04-03T04:24:46;2.73;;;1.30;;
938;SDS011;456;53.584;9.968;2023-04-03T04:27:12;2.27;;;1.67;;
938;SDS011;456;53.584;9.968;2023-04-03T04:29:37;2.37;;;1.40;;
938;SDS011;456;53.584;9.968;2023-04-03T04:32:03;3.37;;;1.23;;
938;SDS011;456;53.584;9.968;2023-04-03T04:34:29;5.67;;;1.33;;
938;SDS011;456;53.584;9.968;2023-04-03T04:36:55;1.47;;;1.10;;
938;SDS011;456;53.584;9.968;2023-04-03T04:39:20;2.43;;;1.47;;
938;SDS011;456;53.584;9.968;2023-04-03T04:41:46;2.87;;;1.80;;
938;SDS011;456;53.584;9.968;2023-04-03T04:44:12;2.20;;;1.50;;
938;SDS011;456;53.584;9.968;2023-04-03T04:46:37;2.73;;;1.30;;
938;SDS011;456;53.584;9.968;2023-04-03T04:49:03;2.83;;;1.37;;
938;SDS011;456;53.584;9.968;2023-04-03T04:51:29;2.20;;;1.50;;
938;SDS011;456;53.584;9.968;2023-04-03T04:53:54;4.97;;;1.33;;
938;SDS011;456;53.584;9.968;2023-04-03T04:56:20;5.53;;;1.47;;
938;SDS011;456;53.584;9.968;2023-04-03T04:58:46;8.10;;;1.80;;
938;SDS011;456;53.584;9.968;2023-04-03T05:01:11;2.67;;;1.30;;
938;SDS011;456;53.584;9.968;2023-04-03T05:03:37;2.43;;;1.80;;
938;SDS011;456;53.584;9.968;2023-04-03T05:06:03;2.70;;;1.50;;
938;SDS011;456;53.584;9.968;2023-04-03T05:08:29;2.73;;;1.43;;
938;SDS011;456;53.584;9.968;2023-04-03T05:10:55;4.60;;;1.87;;
938;SDS011;456;53.584;9.968;2023-04-03T05:13:21;2.10;;;1.87;;
938;SDS011;456;53.584;9.968;2023-04-03T05:15:47;4.10;;;1.60;;
938;SDS011;456;53.584;9.968;2023-04-03T05:18:13;2.33;;;1.67;;
938;SDS011;456;53.584;9.968;2023-04-03T05:20:38;4.57;;;1.30;;
938;SDS011;456;53.584;9.968;2023-04-03T05:23:05;5.10;;;1.27;;
938;SDS011;456;53.584;9.968;2023-04-03T05:25:31;6.20;;;1.50;;
938;SDS011;456;53.584;9.968;2023-04-03T05:27:57;3.07;;;1.53;;
938;SDS011;456;53.584;9.968;2023-04-03T05:30:23;1.83;;;1.30;;
938;SDS011;456;53.584;9.968;2023-04-03T05:32:49;2.30;;;1.50;;
938;SDS011;456;53.584;9.968;2023-04-03T05:35:14;3.03;;;1.40;;
938;SDS011;456;53.584;9.968;2023-04-03T05:37:40;5.07;;;1.10;;
938;SDS011;456;53.584;9.968;2023-04-03T05:40:06;2.60;;;1.37;;
938;SDS011;456;53.584;9.968;2023-04-03T05:42:32;2.00;;;1.30;;
938;SDS011;456;53.584;9.968;2023-04-03T05:44:58;2.03;;;1.50;;
938;SDS011;456;53.584;9.968;2023-04-03T05:47:24;3.73;;;1.40;;
938;SDS011;456;53.584;9.968;2023-04-03T05:49:49;2.63;;;1.10;;
938;SDS011;456;53.584;9.968;2023-04-03T05:54:49;1.97;;;1.10;;
938;SDS011;456;53.584;9.968;2023-04-03T05:57:15;2.40;;;1.30;;
938;SDS011;456;53.584;9.968;2023-04-03T05:59:42;2.50;;;1.50;;
938;SDS011;456;53.584;9.968;2023-04-03T06:02:12;1.80;;;1.33;;
938;SDS011;456;53.584;9.968;2023-04-03T06:04:39;1.67;;;1.10;;
938;SDS011;456;53.584;9.968;2023-04-03T06:07:05;2.20;;;1.27;;
938;SDS011;456;53.584;9.968;2023-04-03T06:09:31;3.00;;;1.67;;
938;SDS011;456;53.584;9.968;2023-04-03T06:11:57;1.20;;;1.00;;
938;SDS011;456;53.584;9.968;2023-04-03T06:14:24;3.70;;;1.30;;
938;SDS011;456;53.584;9.968;2023-04-03T06:16:50;2.00;;;0.90;;
938;SDS011;456;53.584;9.968;2023-04-03T06:19:16;1.63;;;1.30;;
938;SDS011;456;53.584;9.968;2023-04-03T06:21:43;1.63;;;1.40;;
938;SDS011;456;53.584;9.968;2023-04-03T06:24:09;2.63;;;1.33;;
938;SDS011;456;53.584;9.968;2023-04-03T06:26:37;1.70;;;1.17;;
938;SDS011;456;53.584;9.968;2023-04-03T06:29:03;2.23;;;0.90;;
938;SDS011;456;53.584;9.968;2023-04-03T06:31:28;1.43;;;1.10;;
938;SDS011;456;53.584;9.968;2023-04-03T06:33:54;1.10;;;1.00;;
938;SDS011;456;53.584;9.968;2023-04-03T06:36:21;2.23;;;1.17;;
938;SDS011;456;53.584;9.968;2023-04-03T06:38:47;1.83;;;1.23;;
938;SDS011;456;53.584;9.968;2023-04-03T06:41:13;3.53;;;1.17;;
938;SDS011;456;53.584;9.968;2023-04-03T06:43:39;1.60;;;1.07;;
938;SDS011;456;53.584;9.968;2023-04-03T06:46:05;2.50;;;1.30;;
938;SDS011;456;53.584;9.968;2023-04-03T06:48:31;2.60;;;1.13;;
938;SDS011;456;53.584;9.968;2023-04-03T06:50:57;2.93;;;1.50;;
938;SDS011;456;53.584;9.968;2023-04-03T06:53:22;1.70;;;1.10;;
938;SDS011;456;53.584;9.968;2023-04-03T06:55:48;1.70;;;1.30;;
938;SDS011;456;53.584;9.968;2023-04-03T06:58:14;1.07;;;0.97;;
938;SDS011;456;53.584;9.968;2023-04-03T07:00:42;1.47;;;1.00;;
938;SDS011;456;53.584;9.968;2023-04-03T07:03:07;2.40;;;1.13;;
938;SDS011;456;53.584;9.968;2023-04-03T07:05:33;1.77;;;1.13;;
938;SDS011;456;53.584;9.968;2023-04-03T07:07:58;1.37;;;1.10;;
938;SDS011;456;53.584;9.968;2023-04-03T07:10:24;1.20;;;1.10;;
938;SDS011;456;53.584;9.968;2023-04-03T07:12:50;2.07;;;1.33;;
938;SDS011;456;53.584;9.968;2023-04-03T07:15:16;1.70;;;1.23;;
938;SDS011;456;53.584;9.968;2023-04-03T07:17:41;1.47;;;1.10;;
938;SDS011;456;53.584;9.968;2023-04-03T07:20:08;2.17;;;1.00;;
938;SDS011;456;53.584;9.968;2023-04-03T07:22:34;1.83;;;1.03;;
938;SDS011;456;53.584;9.968;2023-04-03T07:24:59;2.07;;;1.30;;
938;SDS011;456;53.584;9.968;2023-04-03T07:27:25;2.03;;;1.33;;
938;SDS011;456;53.584;9.968;2023-04-03T07:29:51;3.50;;;1.37;;
938;SDS011;456;53.584;9.968;2023-04-03T07:32:17;2.30;;;1.10;;
938;SDS011;456;53.584;9.968;2023-04-03T07:34:43;1.70;;;1.10;;
938;SDS011;456;53.584;9.968;2023-04-03T07:37:09;1.40;;;1.13;;
938;SDS011;456;53.584;9.968;2023-04-03T07:39:35;3.47;;;1.20;;
938;SDS011;456;53.584;9.968;2023-04-03T07:42:01;3.00;;;1.40;;
938;SDS011;456;53.584;9.968;2023-04-03T07:44:27;1.30;;;1.20;;
938;SDS011;456;53.584;9.968;2023-04-03T07:46:53;1.23;;;0.90;;
938;SDS011;456;53.584;9.968;2023-04-03T07:49:20;1.10;;;0.90;;
938;SDS011;456;53.584;9.968;2023-04-03T07:51:48;1.20;;;1.10;;
938;SDS011;456;53.584;9.968;2023-04-03T07:54:14;1.47;;;1.13;;
938;SDS011;456;53.584;9.968;2023-04-03T07:56:40;1.43;;;0.97;;
938;SDS011;456;53.584;9.968;2023-04-03T07:59:08;2.17;;;0.97;;
938;SDS011;456;53.584;9.968;2023-04-03T08:01:35;2.77;;;1.03;;
938;SDS011;456;53.584;9.968;2023-04-03T08:04:00;1.10;;;0.90;;
938;SDS011;456;53.584;9.968;2023-04-03T08:06:27;1.93;;;1.10;;
938;SDS011;456;53.584;9.968;2023-04-03T08:08:54;1.17;;;0.83;;
938;SDS011;456;53.584;9.968;2023-04-03T08:11:21;1.10;;;0.80;;
938;SDS011;456;53.584;9.968;2023-04-03T08:13:48;2.10;;;1.00;;
938;SDS011;456;53.584;9.968;2023-04-03T08:16:16;1.23;;;0.80;;
938;SDS011;456;53.584;9.968;2023-04-03T08:18:43;0.70;;;0.67;;
938;SDS011;456;53.584;9.968;2023-04-03T08:21:10;1.30;;;0.90;;
938;SDS011;456;53.584;9.968;2023-04-03T08:23:37;1.63;;;1.33;;
938;SDS011;456;53.584;9.968;2023-04-03T08:26:14;1.40;;;0.80;;
938;SDS011;456;53.584;9.968;2023-04-03T08:28:42;1.20;;;0.80;;
938;SDS011;456;53.584;9.968;2023-04-03T08:31:09;1.30;;;0.97;;
938;SDS011;456;53.584;9.968;2023-04-03T08:33:37;1.23;;;1.13;;
938;SDS011;456;53.584;9.968;2023-04-03T08:36:03;1.17;;;0.80;;
938;SDS011;456;53.584;9.968;2023-04-03T08:38:30;2.40;;;1.03;;
938;SDS011;456;53.584;9.968;2023-04-03T08:46:14;1.10;;;0.90;;
938;SDS011;456;53.584;9.968;2023-04-03T08:48:42;1.30;;;0.90;;
938;SDS011;456;53.584;9.968;2023-04-03T08:51:10;0.97;;;0.67;;
938;SDS011;456;53.584;9.968;2023-04-03T08:53:42;1.10;;;0.70;;
938;SDS011;456;53.584;9.968;2023-04-03T08:56:13;0.80;;;0.70;;
938;SDS011;456;53.584;9.968;2023-04-03T09:03:46;1.37;;;0.90;;
938;SDS011;456;53.584;9.968;2023-04-03T09:06:21;0.97;;;0.77;;
938;SDS011;456;53.584;9.968;2023-04-03T09:17:40;1.47;;;0.83;;
938;SDS011;456;53.584;9.968;2023-04-03T09:22:57;1.73;;;0.80;;
938;SDS011;456;53.584;9.968;2023-04-03T09:25:24;2.37;;;1.20;;
938;SDS011;456;53.584;9.968;2023-04-03T09:27:52;1.33;;;0.80;;
938;SDS011;456;53.584;9.968;2023-04-03T09:30:19;2.77;;;0.80;;
938;SDS011;456;53.584;9.968;2023-04-03T09:32:48;1.27;;;0.80;;
938;SDS011;456;53.584;9.968;2023-04-03T09:35:28;1.10;;;0.80;;
938;SDS011;456;53.584;9.968;2023-04-03T09:38:18;0.80;;;0.70;;
938;SDS011;456;53.584;9.968;2023-04-03T09:40:44;1.87;;;0.87;;
938;SDS011;456;53.584;9.968;2023-04-03T09:45:46;1.40;;;0.70;;
938;SDS011;456;53.584;9.968;2023-04-03T09:55:55;1.43;;;1.03;;
938;SDS011;456;53.584;9.968;2023-04-03T10:00:56;1.00;;;0.67;;
938;SDS011;456;53.584;9.968;2023-04-03T10:03:30;1.20;;;0.90;;
938;SDS011;456;53.584;9.968;2023-04-03T10:06:02;1.60;;;0.90;;
938;SDS011;456;53.584;9.968;2023-04-03T10:08:30;1.70;;;0.70;;
938;SDS011;456;53.584;9.968;2023-04-03T10:11:10;1.00;;;0.90;;
938;SDS011;456;53.584;9.968;2023-04-03T10:16:22;0.77;;;0.50;;
938;SDS011;456;53.584;9.968;2023-04-03T10:21:56;2.03;;;0.80;;
938;SDS011;456;53.584;9.968;2023-04-03T10:27:10;1.00;;;0.70;;
938;SDS011;456;53.584;9.968;2023-04-03T10:29:51;0.80;;;0.60;;
938;SDS011;456;53.584;9.968;2023-04-03T10:46:52;0.80;;;0.80;;
938;SDS011;456;53.584;9.968;2023-04-03T10:49:28;1.00;;;0.90;;
938;SDS011;456;53.584;9.968;2023-04-03T10:52:21;1.87;;;0.80;;
938;SDS011;456;53.584;9.968;2023-04-03T10:57:46;0.90;;;0.80;;
938;SDS011;456;53.584;9.968;2023-04-03T11:00:21;1.57;;;1.00;;
938;SDS011;456;53.584;9.968;2023-04-03T11:02:53;0.87;;;0.80;;
938;SDS011;456;53.584;9.968;2023-04-03T11:05:25;1.33;;;0.73;;
938;SDS011;456;53.584;9.968;2023-04-03T11:07:52;1.13;;;0.77;;
938;SDS011;456;53.584;9.968;2023-04-03T11:15:39;0.90;;;0.70;;
938;SDS011;456;53.584;9.968;2023-04-03T11:18:06;1.90;;;0.80;;
938;SDS011;456;53.584;9.968;2023-04-03T11:20:41;0.80;;;0.70;;
938;SDS011;456;53.584;9.968;2023-04-03T11:23:24;0.90;;;0.80;;
938;SDS011;456;53.584;9.968;2023-04-03T11:25:54;1.63;;;0.70;;
938;SDS011;456;53.584;9.968;2023-04-03T11:28:24;0.90;;;0.60;;
938;SDS011;456;53.584;9.968;2023-04-03T11:36:22;1.10;;;0.60;;
938;SDS011;456;53.584;9.968;2023-04-03T11:39:20;0.80;;;0.60;;
938;SDS011;456;53.584;9.968;2023-04-03T11:41:49;1.10;;;0.70;;
938;SDS011;456;53.584;9.968;2023-04-03T11:46:56;0.90;;;0.60;;
938;SDS011;456;53.584;9.968;2023-04-03T12:16:22;0.57;;;0.50;;
938;SDS011;456;53.584;9.968;2023-04-03T12:21:21;0.93;;;0.70;;
938;SDS011;456;53.584;9.968;2023-04-03T12:28:57;1.33;;;0.80;;
938;SDS011;456;53.584;9.968;2023-04-03T12:31:25;0.70;;;0.60;;
938;SDS011;456;53.584;9.968;2023-04-03T12:37:07;1.10;;;0.70;;
938;SDS011;456;53.584;9.968;2023-04-03T12:45:29;0.77;;;0.60;;
938;SDS011;456;53.584;9.968;2023-04-03T12:48:27;0.77;;;0.50;;
938;SDS011;456;53.584;9.968;2023-04-03T12:50:56;0.63;;;0.50;;
938;SDS011;456;53.584;9.968;2023-04-03T12:53:33;0.80;;;0.50;;
938;SDS011;456;53.584;9.968;2023-04-03T12:56:20;0.90;;;0.50;;
938;SDS011;456;53.584;9.968;2023-04-03T12:58:51;1.67;;;1.10;;
938;SDS011;456;53.584;9.968;2023-04-03T13:01:21;0.70;;;0.60;;
938;SDS011;456;53.584;9.968;2023-04-03T13:03:49;1.30;;;0.83;;
938;SDS011;456;53.584;9.968;2023-04-03T13:06:23;0.57;;;0.40;;
938;SDS011;456;53.584;9.968;2023-04-03T13:08:58;0.57;;;0.47;;
938;SDS011;456;53.584;9.968;2023-04-03T13:11:27;1.10;;;0.60;;
938;SDS011;456;53.584;9.968;2023-04-03T13:14:05;1.00;;;0.60;;
938;SDS011;456;53.584;9.968;2023-04-03T13:16:40;1.03;;;0.70;;
938;SDS011;456;53.584;9.968;2023-04-03T13:19:06;0.83;;;0.60;;
938;SDS011;456;53.584;9.968;2023-04-03T13:21:41;0.70;;;0.67;;
938;SDS011;456;53.584;9.968;2023-04-03T13:24:09;2.10;;;0.87;;
938;SDS011;456;53.584;9.968;2023-04-03T13:26:35;0.77;;;0.60;;
938;SDS011;456;53.584;9.968;2023-04-03T13:29:03;0.90;;;0.80;;
938;SDS011;456;53.584;9.968;2023-04-03T13:31:36;0.90;;;0.80;;
938;SDS011;456;53.584;9.968;2023-04-03T13:34:07;0.93;;;0.60;;
938;SDS011;456;53.584;9.968;2023-04-03T13:36:41;3.20;;;0.70;;
938;SDS011;456;53.584;9.968;2023-04-03T13:41:40;1.17;;;0.80;;
938;SDS011;456;53.584;9.968;2023-04-03T13:46:48;1.00;;;0.70;;
938;SDS011;456;53.584;9.968;2023-04-03T13:49:20;0.80;;;0.67;;
938;SDS011;456;53.584;9.968;2023-04-03T13:51:47;0.80;;;0.70;;
938;SDS011;456;53.584;9.968;2023-04-03T13:54:19;0.70;;;0.70;;
938;SDS011;456;53.584;9.968;2023-04-03T13:56:52;0.60;;;0.40;;
938;SDS011;456;53.584;9.968;2023-04-03T13:59:22;0.60;;;0.50;;
938;SDS011;456;53.584;9.968;2023-04-03T14:01:51;1.03;;;0.60;;
938;SDS011;456;53.584;9.968;2023-04-03T14:04:23;0.80;;;0.50;;
938;SDS011;456;53.584;9.968;2023-04-03T14:06:51;1.00;;;0.60;;
938;SDS011;456;53.584;9.968;2023-04-03T14:09:18;0.80;;;0.60;;
938;SDS011;456;53.584;9.968;2023-04-03T14:11:44;0.70;;;0.50;;
938;SDS011;456;53.584;9.968;2023-04-03T14:14:18;1.13;;;0.50;;
938;SDS011;456;53.584;9.968;2023-04-03T14:16:47;0.73;;;0.43;;
938;SDS011;456;53.584;9.968;2023-04-03T14:19:25;0.80;;;0.63;;
938;SDS011;456;53.584;9.968;2023-04-03T14:21:52;1.57;;;0.70;;
938;SDS011;456;53.584;9.968;2023-04-03T14:24:19;0.80;;;0.67;;
938;SDS011;456;53.584;9.968;2023-04-03T14:26:46;0.70;;;0.50;;
938;SDS011;456;53.584;9.968;2023-04-03T14:29:13;1.37;;;0.50;;
938;SDS011;456;53.584;9.968;2023-04-03T14:31:40;0.80;;;0.67;;
938;SDS011;456;53.584;9.968;2023-04-03T14:34:06;0.70;;;0.50;;
938;SDS011;456;53.584;9.968;2023-04-03T14:36:32;0.80;;;0.50;;
938;SDS011;456;53.584;9.968;2023-04-03T14:38:58;0.80;;;0.60;;
938;SDS011;456;53.584;9.968;2023-04-03T14:41:25;0.87;;;0.67;;
938;SDS011;456;53.584;9.968;2023-04-03T14:43:51;1.07;;;0.70;;
938;SDS011;456;53.584;9.968;2023-04-03T14:46:25;1.17;;;0.40;;
938;SDS011;456;53.584;9.968;2023-04-03T14:48:57;0.80;;;0.60;;
938;SDS011;456;53.584;9.968;2023-04-03T14:51:24;0.60;;;0.50;;
938;SDS011;456;53.584;9.968;2023-04-03T14:53:50;0.90;;;0.50;;
938;SDS011;456;53.584;9.968;2023-04-03T14:56:23;0.70;;;0.53;;
938;SDS011;456;53.584;9.968;2023-04-03T14:58:53;0.80;;;0.57;;
938;SDS011;456;53.584;9.968;2023-04-03T15:01:23;0.70;;;0.60;;
938;SDS011;456;53.584;9.968;2023-04-03T15:03:50;0.90;;;0.60;;
938;SDS011;456;53.584;9.968;2023-04-03T15:06:15;0.70;;;0.50;;
938;SDS011;456;53.584;9.968;2023-04-03T15:08:41;0.70;;;0.60;;
938;SDS011;456;53.584;9.968;2023-04-03T15:11:11;0.60;;;0.47;;
938;SDS011;456;53.584;9.968;2023-04-03T15:13:37;0.60;;;0.50;;
938;SDS011;456;53.584;9.968;2023-04-03T15:16:04;0.70;;;0.50;;
938;SDS011;456;53.584;9.968;2023-04-03T15:18:32;0.70;;;0.50;;
938;SDS011;456;53.584;9.968;2023-04-03T15:21:02;0.70;;;0.60;;
938;SDS011;456;53.584;9.968;2023-04-03T15:23:28;1.17;;;0.50;;
938;SDS011;456;53.584;9.968;2023-04-03T15:25:55;0.83;;;0.60;;
938;SDS011;456;53.584;9.968;2023-04-03T15:28:40;0.70;;;0.50;;
938;SDS011;456;53.584;9.968;2023-04-03T15:31:07;0.70;;;0.60;;
938;SDS011;456;53.584;9.968;2023-04-03T15:33:33;0.70;;;0.50;;
938;SDS011;456;53.584;9.968;2023-04-03T15:35:59;0.50;;;0.40;;
938;SDS011;456;53.584;9.968;2023-04-03T15:38:25;0.70;;;0.40;;
938;SDS011;456;53.584;9.968;2023-04-03T15:40:51;0.90;;;0.50;;
938;SDS011;456;53.584;9.968;2023-04-03T15:43:16;0.70;;;0.50;;
938;SDS011;456;53.584;9.968;2023-04-03T15:45:42;1.10;;;0.60;;
938;SDS011;456;53.584;9.968;2023-04-03T15:48:09;0.50;;;0.40;;
938;SDS011;456;53.584;9.968;2023-04-03T15:50:35;0.67;;;0.50;;
938;SDS011;456;53.584;9.968;2023-04-03T15:53:00;0.80;;;0.73;;
938;SDS011;456;53.584;9.968;2023-04-03T15:55:31;0.60;;;0.43;;
938;SDS011;456;53.584;9.968;2023-04-03T15:57:58;1.23;;;0.60;;
938;SDS011;456;53.584;9.968;2023-04-03T16:00:25;0.60;;;0.50;;
938;SDS011;456;53.584;9.968;2023-04-03T16:02:52;0.60;;;0.40;;
938;SDS011;456;53.584;9.968;2023-04-03T16:05:24;0.90;;;0.60;;
938;SDS011;456;53.584;9.968;2023-04-03T16:07:50;0.60;;;0.50;;
938;SDS011;456;53.584;9.968;2023-04-03T16:10:17;1.10;;;0.50;;
938;SDS011;456;53.584;9.968;2023-04-03T16:12:43;1.00;;;0.60;;
938;SDS011;456;53.584;9.968;2023-04-03T16:15:09;0.90;;;0.50;;
938;SDS011;456;53.584;9.968;2023-04-03T16:17:36;0.70;;;0.53;;
938;SDS011;456;53.584;9.968;2023-04-03T16:20:03;0.67;;;0.50;;
938;SDS011;456;53.584;9.968;2023-04-03T16:22:31;0.67;;;0.47;;
938;SDS011;456;53.584;9.968;2023-04-03T16:24:57;1.20;;;0.67;;
938;SDS011;456;53.584;9.968;2023-04-03T16:27:22;0.70;;;0.50;;
938;SDS011;456;53.584;9.968;2023-04-03T16:29:52;0.70;;;0.47;;
938;SDS011;456;53.584;9.968;2023-04-03T16:32:19;0.70;;;0.50;;
938;SDS011;456;53.584;9.968;2023-04-03T16:34:45;0.93;;;0.57;;
938;SDS011;456;53.584;9.968;2023-04-03T16:37:10;0.70;;;0.60;;
938;SDS011;456;53.584;9.968;2023-04-03T16:39:36;0.80;;;0.63;;
938;SDS011;456;53.584;9.968;2023-04-03T16:42:01;0.67;;;0.50;;
938;SDS011;456;53.584;9.968;2023-04-03T16:44:27;0.70;;;0.50;;
938;SDS011;456;53.584;9.968;2023-04-03T16:46:53;1.20;;;0.70;;
938;SDS011;456;53.584;9.968;2023-04-03T16:49:19;1.13;;;0.50;;
938;SDS011;456;53.584;9.968;2023-04-03T16:51:45;0.80;;;0.50;;
938;SDS011;456;53.584;9.968;2023-04-03T16:54:11;0.90;;;0.50;;
938;SDS011;456;53.584;9.968;2023-04-03T16:56:38;0.50;;;0.40;;
938;SDS011;456;53.584;9.968;2023-04-03T16:59:04;0.60;;;0.43;;
938;SDS011;456;53.584;9.968;2023-04-03T17:01:30;0.83;;;0.60;;
938;SDS011;456;53.584;9.968;2023-04-03T17:03:56;0.63;;;0.60;;
938;SDS011;456;53.584;9.968;2023-04-03T17:06:22;0.60;;;0.50;;
938;SDS011;456;53.584;9.968;2023-04-03T17:08:49;0.93;;;0.60;;
938;SDS011;456;53.584;9.968;2023-04-03T17:11:16;0.83;;;0.60;;
938;SDS011;456;53.584;9.968;2023-04-03T17:13:42;0.80;;;0.70;;
938;SDS011;456;53.584;9.968;2023-04-03T17:16:09;0.60;;;0.50;;
938;SDS011;456;53.584;9.968;2023-04-03T17:18:37;0.60;;;0.40;;
938;SDS011;456;53.584;9.968;2023-04-03T17:21:03;0.60;;;0.40;;
938;SDS011;456;53.584;9.968;2023-04-03T17:23:30;0.60;;;0.50;;
938;SDS011;456;53.584;9.968;2023-04-03T17:25:59;0.80;;;0.53;;
938;SDS011;456;53.584;9.968;2023-04-03T17:28:25;0.77;;;0.53;;
938;SDS011;456;53.584;9.968;2023-04-03T17:30:55;0.60;;;0.40;;
938;SDS011;456;53.584;9.968;2023-04-03T17:33:23;0.60;;;0.47;;
938;SDS011;456;53.584;9.968;2023-04-03T17:35:49;0.73;;;0.47;;
938;SDS011;456;53.584;9.968;2023-04-03T17:38:15;0.60;;;0.40;;
938;SDS011;456;53.584;9.968;2023-04-03T17:40:41;0.80;;;0.50;;
938;SDS011;456;53.584;9.968;2023-04-03T17:43:08;0.83;;;0.60;;
938;SDS011;456;53.584;9.968;2023-04-03T17:45:35;0.60;;;0.40;;
938;SDS011;456;53.584;9.968;2023-04-03T17:48:01;0.80;;;0.50;;
938;SDS011;456;53.584;9.968;2023-04-03T17:50:26;1.03;;;0.53;;
938;SDS011;456;53.584;9.968;2023-04-03T17:52:52;0.60;;;0.47;;
938;SDS011;456;53.584;9.968;2023-04-03T17:55:18;0.70;;;0.40;;
938;SDS011;456;53.584;9.968;2023-04-03T17:57:44;0.97;;;0.50;;
938;SDS011;456;53.584;9.968;2023-04-03T18:00:09;0.60;;;0.40;;